createdAt,value
2022-11-30T00:01:21.824Z,22.73
2022-11-30T00:03:53.053Z,25.15
2022-11-30T00:06:25.886Z,26.55
2022-11-30T00:08:57.839Z,26.50
2022-11-30T00:11:28.566Z,25.42
2022-11-30T00:16:22.947Z,20.92
2022-11-30T00:18:50.624Z,22.80
2022-11-30T00:21:17.596Z,26.58
2022-11-30T00:23:47.282Z,26.98
2022-11-30T00:26:18.060Z,29.77
2022-11-30T00:36:43.939Z,27.60
2022-11-30T00:39:10.707Z,32.13
2022-11-30T00:41:37.545Z,28.30
2022-11-30T00:44:04.391Z,33.97
2022-11-30T00:46:31.225Z,30.27
2022-11-30T00:48:58.047Z,32.50
2022-11-30T00:51:24.856Z,31.30
2022-11-30T00:53:51.678Z,30.98
2022-11-30T00:56:18.510Z,34.20
2022-11-30T00:58:45.399Z,29.30
2022-11-30T01:01:12.279Z,28.33
2022-11-30T01:03:39.237Z,27.48
2022-11-30T01:06:10.018Z,24.10
2022-11-30T01:11:14.974Z,22.63
2022-11-30T01:13:41.914Z,27.65
2022-11-30T01:16:13.063Z,30.42
2022-11-30T01:18:40.084Z,27.60
2022-11-30T01:21:10.073Z,31.60
2022-11-30T01:23:37.287Z,29.50
2022-11-30T01:26:04.097Z,32.40
2022-11-30T01:28:30.895Z,30.83
2022-11-30T01:31:08.488Z,31.95
2022-11-30T01:33:36.200Z,30.20
2022-11-30T01:36:07.741Z,29.77
2022-11-30T01:38:46.751Z,33.58
2022-11-30T01:41:18.769Z,27.80
2022-11-30T01:44:07.109Z,33.53
2022-11-30T01:46:54.752Z,30.38
2022-11-30T01:49:39.364Z,32.20
2022-11-30T01:52:27.710Z,31.17
2022-11-30T01:55:20.386Z,33.13
2022-11-30T01:57:59.926Z,26.98
2022-11-30T02:00:26.963Z,32.53
2022-11-30T02:03:42.250Z,35.20
2022-11-30T02:06:09.981Z,31.85
2022-11-30T02:08:36.931Z,35.13
2022-11-30T02:11:12.509Z,34.88
2022-11-30T02:14:01.380Z,34.92
2022-11-30T02:17:14.711Z,30.13
2022-11-30T02:20:33.107Z,33.28
2022-11-30T02:23:26.851Z,29.17
2022-11-30T02:26:42.190Z,29.85
2022-11-30T02:29:31.002Z,33.33
2022-11-30T02:32:12.167Z,30.02
2022-11-30T02:34:42.182Z,29.95
2022-11-30T02:37:13.238Z,28.92
2022-11-30T02:39:40.154Z,29.55
2022-11-30T02:42:13.178Z,28.85
2022-11-30T02:44:51.370Z,27.23
2022-11-30T02:47:31.106Z,28.35
2022-11-30T02:50:25.777Z,24.88
2022-11-30T02:52:53.902Z,25.83
2022-11-30T02:55:21.120Z,25.42
2022-11-30T02:57:48.111Z,24.52
2022-11-30T03:00:16.156Z,23.35
2022-11-30T03:02:43.064Z,25.48
2022-11-30T03:05:10.713Z,24.38
2022-11-30T03:07:38.079Z,24.45
2022-11-30T03:10:06.704Z,21.80
2022-11-30T03:12:33.914Z,28.10
2022-11-30T03:15:01.072Z,25.45
2022-11-30T03:17:27.982Z,26.50
2022-11-30T03:19:54.786Z,25.48
2022-11-30T03:22:21.655Z,28.73
2022-11-30T03:24:48.770Z,23.10
2022-11-30T03:27:15.841Z,25.38
2022-11-30T03:29:42.671Z,25.83
2022-11-30T03:32:09.470Z,24.83
2022-11-30T03:34:36.278Z,24.77
2022-11-30T03:37:03.311Z,24.70
2022-11-30T03:39:30.225Z,23.67
2022-11-30T03:41:57.063Z,23.98
2022-11-30T03:44:24.012Z,21.90
2022-11-30T03:46:50.858Z,24.35
2022-11-30T03:49:17.818Z,26.00
2022-11-30T03:51:44.681Z,25.40
2022-11-30T03:54:11.514Z,27.88
2022-11-30T03:56:38.356Z,27.10
2022-11-30T03:59:05.219Z,28.90
2022-11-30T04:01:32.551Z,29.52
2022-11-30T04:03:59.405Z,26.23
2022-11-30T04:06:26.258Z,27.50
2022-11-30T04:08:53.165Z,27.83
2022-11-30T04:11:20.024Z,29.67
2022-11-30T04:13:46.879Z,27.75
2022-11-30T04:16:13.826Z,30.02
2022-11-30T04:18:40.877Z,30.85
2022-11-30T04:21:08.935Z,25.48
2022-11-30T04:23:39.344Z,29.88
2022-11-30T04:26:11.409Z,28.02
2022-11-30T04:28:38.360Z,23.45
2022-11-30T04:31:05.627Z,28.45
2022-11-30T04:33:32.502Z,33.38
2022-11-30T04:36:03.115Z,28.08
2022-11-30T04:38:30.895Z,25.88
2022-11-30T04:40:57.811Z,30.02
2022-11-30T04:43:25.591Z,26.35
2022-11-30T04:45:52.430Z,31.60
2022-11-30T04:48:20.252Z,31.25
2022-11-30T04:50:47.091Z,29.42
2022-11-30T04:53:13.920Z,29.52
2022-11-30T04:55:40.839Z,28.52
2022-11-30T04:58:08.015Z,27.27
2022-11-30T05:00:36.166Z,28.15
2022-11-30T05:03:03.322Z,25.48
2022-11-30T05:05:30.229Z,26.55
2022-11-30T05:07:59.646Z,25.83
2022-11-30T05:10:28.371Z,31.80
2022-11-30T05:12:55.355Z,28.50
2022-11-30T05:15:22.484Z,27.23
2022-11-30T05:17:49.498Z,27.20
2022-11-30T05:20:16.547Z,26.10
2022-11-30T05:22:43.466Z,28.52
2022-11-30T05:25:10.566Z,26.58
2022-11-30T05:27:38.252Z,30.92
2022-11-30T05:30:06.598Z,27.48
2022-11-30T05:32:33.576Z,27.25
2022-11-30T05:35:00.374Z,22.20
2022-11-30T05:37:27.388Z,25.67
2022-11-30T05:39:54.260Z,24.15
2022-11-30T05:42:21.553Z,25.58
2022-11-30T05:44:48.704Z,25.63
2022-11-30T05:47:16.300Z,26.58
2022-11-30T05:49:43.406Z,23.45
2022-11-30T05:52:10.327Z,24.00
2022-11-30T05:54:37.179Z,25.30
2022-11-30T05:57:05.306Z,24.92
2022-11-30T05:59:32.311Z,24.83
2022-11-30T06:01:59.543Z,24.90
2022-11-30T06:04:26.546Z,27.02
2022-11-30T06:06:55.611Z,28.02
2022-11-30T06:09:23.521Z,27.35
2022-11-30T06:11:51.079Z,25.35
2022-11-30T06:14:17.970Z,26.02
2022-11-30T06:16:45.064Z,26.90
2022-11-30T06:19:12.182Z,25.65
2022-11-30T06:21:39.015Z,27.17
2022-11-30T06:24:06.354Z,26.10
2022-11-30T06:26:33.206Z,29.55
2022-11-30T06:29:00.079Z,27.83
2022-11-30T06:31:27.129Z,24.98
2022-11-30T06:33:57.936Z,26.77
2022-11-30T06:36:25.084Z,24.30
2022-11-30T06:38:52.628Z,24.30
2022-11-30T06:41:22.782Z,26.23
2022-11-30T06:43:50.042Z,27.48
2022-11-30T06:46:16.930Z,26.48
2022-11-30T06:48:43.757Z,27.30
2022-11-30T06:51:11.066Z,26.23
2022-11-30T06:53:38.123Z,25.73
2022-11-30T06:56:10.669Z,24.70
2022-11-30T06:58:39.868Z,26.02
2022-11-30T07:01:10.100Z,28.33
2022-11-30T07:03:37.573Z,28.20
2022-11-30T07:06:13.584Z,25.88
2022-11-30T07:08:42.267Z,25.77
2022-11-30T07:11:11.626Z,27.60
2022-11-30T07:13:39.077Z,27.27
2022-11-30T07:16:10.506Z,26.50
2022-11-30T07:18:37.540Z,25.40
2022-11-30T07:21:05.698Z,28.05
2022-11-30T07:23:55.823Z,25.75
2022-11-30T07:26:25.494Z,25.75
2022-11-30T07:28:55.178Z,25.98
2022-11-30T07:31:28.359Z,26.33
2022-11-30T07:33:56.932Z,23.35
2022-11-30T07:36:26.874Z,27.45
2022-11-30T07:38:53.681Z,27.87
2022-11-30T07:41:20.469Z,22.60
2022-11-30T07:43:47.315Z,22.10
2022-11-30T07:46:16.245Z,24.48
2022-11-30T07:48:44.985Z,25.35
2022-11-30T07:51:23.223Z,24.52
2022-11-30T07:53:50.578Z,28.15
2022-11-30T07:56:20.328Z,25.67
2022-11-30T07:58:49.434Z,27.73
2022-11-30T08:01:21.786Z,26.05
2022-11-30T08:03:50.478Z,27.30
2022-11-30T08:06:27.492Z,30.80
2022-11-30T08:08:59.187Z,29.13
2022-11-30T08:11:33.845Z,25.90
2022-11-30T08:14:02.316Z,25.35
2022-11-30T08:16:34.310Z,27.58
2022-11-30T08:19:01.186Z,26.15
2022-11-30T08:21:28.039Z,24.05
2022-11-30T08:23:56.887Z,28.27
2022-11-30T08:26:33.727Z,26.48
2022-11-30T08:29:01.650Z,23.95
2022-11-30T08:31:36.152Z,23.95
2022-11-30T08:34:09.437Z,21.67
2022-11-30T08:36:36.725Z,24.65
2022-11-30T08:39:06.016Z,23.75
2022-11-30T08:41:34.886Z,27.60
2022-11-30T08:44:02.320Z,24.35
2022-11-30T08:52:18.939Z,23.20
2022-11-30T08:54:48.594Z,20.25
2022-11-30T08:57:21.309Z,22.35
2022-11-30T08:59:48.746Z,21.77
2022-11-30T09:02:19.530Z,19.83
2022-11-30T09:04:49.455Z,25.08
2022-11-30T09:07:16.846Z,20.40
2022-11-30T09:09:43.662Z,26.10
2022-11-30T09:12:10.459Z,19.48
2022-11-30T09:14:37.439Z,22.48
2022-11-30T09:17:04.777Z,21.63
2022-11-30T09:19:31.599Z,21.63
2022-11-30T09:21:58.351Z,16.48
2022-11-30T09:24:25.408Z,23.15
2022-11-30T09:26:56.946Z,20.70
2022-11-30T09:29:24.321Z,23.27
2022-11-30T09:31:51.103Z,20.92
2022-11-30T09:34:17.965Z,20.25
2022-11-30T09:36:44.821Z,22.95
2022-11-30T09:39:12.828Z,20.63
2022-11-30T09:42:41.393Z,21.52
2022-11-30T09:45:23.015Z,22.08
2022-11-30T09:48:04.316Z,20.42
2022-11-30T09:50:41.694Z,18.55
2022-11-30T09:53:43.129Z,22.05
2022-11-30T09:56:31.013Z,19.67
2022-11-30T09:59:14.012Z,23.70
2022-11-30T10:01:45.913Z,20.13
2022-11-30T10:04:27.403Z,18.38
2022-11-30T10:07:26.181Z,19.92
2022-11-30T10:10:32.204Z,20.80
2022-11-30T10:13:34.633Z,19.60
2022-11-30T10:16:36.193Z,16.25
2022-11-30T10:19:50.735Z,19.67
2022-11-30T10:22:27.010Z,18.08
2022-11-30T10:24:59.866Z,17.23
2022-11-30T10:27:40.842Z,17.60
2022-11-30T10:30:39.045Z,17.80
2022-11-30T10:33:20.004Z,18.67
2022-11-30T10:38:40.021Z,17.05
2022-11-30T10:41:21.491Z,18.38
2022-11-30T10:44:03.846Z,17.88
2022-11-30T10:46:42.428Z,19.13
2022-11-30T10:49:18.567Z,19.98
2022-11-30T10:51:54.930Z,18.27
2022-11-30T10:54:23.547Z,18.10
2022-11-30T10:56:50.627Z,19.00
2022-11-30T10:59:27.771Z,18.80
2022-11-30T11:01:54.716Z,17.60
2022-11-30T11:04:25.349Z,17.38
2022-11-30T11:07:08.968Z,17.88
2022-11-30T11:09:39.942Z,15.20
2022-11-30T11:12:26.514Z,18.15
2022-11-30T11:15:19.188Z,15.18
2022-11-30T11:17:46.746Z,18.60
2022-11-30T11:20:35.585Z,18.55
2022-11-30T11:23:04.453Z,18.23
2022-11-30T11:25:37.504Z,14.65
2022-11-30T11:28:16.448Z,17.90
2022-11-30T11:30:43.409Z,19.20
2022-11-30T11:33:13.171Z,22.48
2022-11-30T11:35:56.208Z,20.08
2022-11-30T11:38:49.327Z,21.60
2022-11-30T11:41:29.371Z,17.67
2022-11-30T11:44:04.240Z,19.33
2022-11-30T11:46:34.410Z,19.48
2022-11-30T11:49:07.749Z,19.55
2022-11-30T11:51:38.073Z,14.82
2022-11-30T11:54:41.406Z,14.93
2022-11-30T11:57:15.396Z,16.48
2022-11-30T11:59:52.136Z,14.40
2022-11-30T12:02:46.562Z,15.40
2022-11-30T12:05:27.025Z,15.90
2022-11-30T12:08:33.506Z,13.77
2022-11-30T12:11:18.474Z,15.38
2022-11-30T12:13:47.456Z,17.27
2022-11-30T12:16:26.464Z,16.90
2022-11-30T12:19:11.176Z,16.15
2022-11-30T12:22:02.028Z,17.85
2022-11-30T12:25:20.901Z,13.30
2022-11-30T12:28:15.687Z,12.50
2022-11-30T12:31:18.015Z,12.23
2022-11-30T12:34:07.615Z,12.38
2022-11-30T12:37:04.715Z,13.45
2022-11-30T12:39:50.103Z,14.63
2022-11-30T12:42:54.517Z,13.98
2022-11-30T12:45:47.283Z,18.10
2022-11-30T12:48:29.098Z,19.67
2022-11-30T12:51:12.815Z,16.60
2022-11-30T12:53:53.251Z,18.23
2022-11-30T12:56:42.891Z,13.80
2022-11-30T12:59:35.199Z,13.80
2022-11-30T13:02:43.418Z,13.43
2022-11-30T13:05:29.657Z,12.63
2022-11-30T13:08:08.966Z,12.23
2022-11-30T13:10:44.332Z,16.85
2022-11-30T13:13:21.648Z,14.77
2022-11-30T13:15:49.783Z,14.80
2022-11-30T13:18:21.195Z,16.92
2022-11-30T13:21:19.008Z,13.80
2022-11-30T13:24:11.736Z,16.98
2022-11-30T13:26:55.890Z,15.38
2022-11-30T13:29:56.773Z,17.00
2022-11-30T13:35:29.000Z,13.07
2022-11-30T13:38:36.459Z,17.92
2022-11-30T13:41:08.369Z,17.13
2022-11-30T13:43:50.008Z,17.80
2022-11-30T13:46:23.627Z,19.13
2022-11-30T13:49:18.509Z,15.75
2022-11-30T13:51:45.371Z,14.48
2022-11-30T13:54:46.085Z,16.85
2022-11-30T13:57:25.115Z,16.73
2022-11-30T13:59:57.234Z,16.67
2022-11-30T14:02:41.812Z,21.65
2022-11-30T14:05:20.248Z,15.55
2022-11-30T14:08:07.182Z,20.17
2022-11-30T14:10:39.084Z,20.65
2022-11-30T14:13:31.083Z,20.38
2022-11-30T14:16:01.589Z,18.73
2022-11-30T14:18:43.877Z,20.52
2022-11-30T14:21:22.142Z,17.33
2022-11-30T14:24:19.305Z,20.95
2022-11-30T14:26:51.691Z,17.92
2022-11-30T14:29:39.429Z,17.33
2022-11-30T14:32:26.608Z,18.27
2022-11-30T14:35:14.287Z,22.90
2022-11-30T14:37:46.942Z,18.88
2022-11-30T14:40:20.216Z,21.25
2022-11-30T14:42:55.691Z,24.80
2022-11-30T14:45:30.595Z,23.23
2022-11-30T14:48:13.875Z,23.20
2022-11-30T14:51:03.887Z,24.48
2022-11-30T14:53:51.700Z,21.53
2022-11-30T14:56:48.133Z,20.80
2022-11-30T14:59:35.759Z,24.52
2022-11-30T15:02:11.925Z,22.10
2022-11-30T15:04:38.802Z,23.60
2022-11-30T15:07:15.115Z,23.35
2022-11-30T15:09:47.740Z,23.58
2022-11-30T15:12:24.778Z,24.48
2022-11-30T15:15:14.388Z,21.63
2022-11-30T15:18:16.276Z,20.15
2022-11-30T15:20:54.423Z,21.58
2022-11-30T15:23:21.621Z,23.27
2022-11-30T15:26:21.289Z,24.02
2022-11-30T15:29:01.299Z,21.17
2022-11-30T15:31:36.365Z,22.53
2022-11-30T15:34:04.470Z,20.27
2022-11-30T15:36:39.410Z,20.67
2022-11-30T15:39:14.832Z,18.25
2022-11-30T15:41:41.957Z,19.67
2022-11-30T15:44:25.495Z,21.92
2022-11-30T15:47:02.508Z,21.50
2022-11-30T15:49:32.666Z,19.33
2022-11-30T15:52:03.070Z,23.85
2022-11-30T15:54:47.545Z,21.50
2022-11-30T15:57:16.912Z,24.00
2022-11-30T15:59:44.284Z,19.10
2022-11-30T16:02:33.379Z,22.70
2022-11-30T16:05:14.116Z,23.05
2022-11-30T16:08:06.242Z,23.70
2022-11-30T16:10:39.239Z,25.83
2022-11-30T16:13:06.793Z,19.58
2022-11-30T16:15:36.824Z,19.45
2022-11-30T16:18:20.283Z,18.35
2022-11-30T16:20:52.278Z,20.65
2022-11-30T16:23:20.636Z,18.90
2022-11-30T16:25:52.284Z,18.77
2022-11-30T16:28:21.254Z,17.30
2022-11-30T16:30:49.770Z,18.60
2022-11-30T16:33:24.498Z,18.65
2022-11-30T16:36:20.629Z,17.88
2022-11-30T16:38:49.960Z,19.35
2022-11-30T16:41:24.022Z,21.17
2022-11-30T16:43:54.546Z,19.85
2022-11-30T16:46:25.153Z,16.75
2022-11-30T16:48:52.423Z,19.10
2022-11-30T16:51:27.672Z,21.48
2022-11-30T16:53:55.567Z,18.42
2022-11-30T16:56:23.304Z,16.48
2022-11-30T16:58:50.589Z,19.85
2022-11-30T17:01:38.249Z,18.25
2022-11-30T17:04:16.574Z,20.38
2022-11-30T17:06:48.221Z,19.63
2022-11-30T17:09:18.031Z,20.77
2022-11-30T17:11:50.356Z,19.88
2022-11-30T17:14:19.481Z,17.92
2022-11-30T17:16:46.481Z,24.35
2022-11-30T17:19:13.426Z,20.92
2022-11-30T17:21:42.226Z,19.88
2022-11-30T17:24:09.413Z,21.40
2022-11-30T17:26:36.317Z,19.73
2022-11-30T17:29:03.689Z,18.33
2022-11-30T17:31:30.651Z,19.13
2022-11-30T17:33:57.533Z,17.95
2022-11-30T17:36:24.489Z,21.45
2022-11-30T17:38:54.303Z,21.17
2022-11-30T17:41:22.383Z,19.83
2022-11-30T17:43:49.705Z,22.80
2022-11-30T17:46:18.813Z,23.65
2022-11-30T17:48:45.832Z,20.70
2022-11-30T17:51:13.587Z,21.50
2022-11-30T17:53:42.774Z,23.38
2022-11-30T17:56:16.053Z,22.48
2022-11-30T17:58:45.443Z,22.08
2022-11-30T18:01:24.172Z,18.88
2022-11-30T18:03:54.863Z,22.38
2022-11-30T18:06:22.203Z,21.85
2022-11-30T18:08:49.334Z,19.75
2022-11-30T18:11:23.636Z,21.02
2022-11-30T18:13:53.548Z,24.20
2022-11-30T18:16:33.329Z,20.23
2022-11-30T18:19:00.478Z,23.00
2022-11-30T18:21:32.715Z,24.60
2022-11-30T18:23:59.657Z,17.80
2022-11-30T18:26:27.355Z,20.35
2022-11-30T18:28:58.300Z,23.38
2022-11-30T18:31:27.836Z,20.67
2022-11-30T18:33:57.531Z,19.38
2022-11-30T18:36:25.777Z,26.10
2022-11-30T18:38:52.798Z,24.25
2022-11-30T18:41:20.200Z,23.20
2022-11-30T18:43:47.059Z,22.02
2022-11-30T18:46:14.513Z,22.92
2022-11-30T18:48:42.013Z,24.95
2022-11-30T18:51:24.855Z,21.90
2022-11-30T18:54:04.202Z,25.05
2022-11-30T18:56:35.174Z,25.00
2022-11-30T18:59:10.214Z,24.48
2022-11-30T19:01:37.292Z,21.90
2022-11-30T19:04:08.517Z,22.98
2022-11-30T19:06:37.653Z,23.23
2022-11-30T19:09:13.551Z,24.13
2022-11-30T19:11:43.782Z,24.10
2022-11-30T19:14:14.624Z,22.85
2022-11-30T19:19:13.958Z,18.95
2022-11-30T19:21:44.502Z,23.55
2022-11-30T19:24:11.286Z,23.45
2022-11-30T19:26:40.104Z,20.20
2022-11-30T19:29:07.995Z,24.90
2022-11-30T19:31:34.958Z,26.30
2022-11-30T19:34:07.764Z,28.67
2022-11-30T19:36:37.740Z,27.27
2022-11-30T19:39:04.621Z,23.63
2022-11-30T19:41:31.576Z,28.08
2022-11-30T19:44:03.929Z,24.83
2022-11-30T19:46:33.061Z,28.85
2022-11-30T19:49:01.741Z,27.58
2022-11-30T19:51:30.603Z,29.08
2022-11-30T19:53:59.206Z,27.92
2022-11-30T19:56:28.117Z,27.55
2022-11-30T19:59:01.191Z,27.08
2022-11-30T20:01:31.231Z,25.02
2022-11-30T20:03:58.829Z,29.48
2022-11-30T20:06:32.883Z,29.83
2022-11-30T20:08:59.848Z,27.00
2022-11-30T20:11:26.837Z,28.80
2022-11-30T20:13:53.855Z,28.48
2022-11-30T20:16:23.081Z,22.88
2022-11-30T20:19:03.050Z,31.35
2022-11-30T20:21:34.282Z,23.88
2022-11-30T20:24:06.493Z,26.30
2022-11-30T20:26:40.768Z,26.50
2022-11-30T20:29:12.864Z,31.75
2022-11-30T20:31:40.625Z,27.85
2022-11-30T20:34:08.676Z,29.17
2022-11-30T20:36:36.373Z,29.58
2022-11-30T20:39:04.713Z,30.42
2022-11-30T20:41:32.173Z,26.50
2022-11-30T20:43:59.064Z,27.77
2022-11-30T20:46:30.335Z,30.42
2022-11-30T20:48:58.852Z,27.90
2022-11-30T20:51:33.084Z,27.15
2022-11-30T20:54:03.714Z,30.33
2022-11-30T20:56:30.627Z,27.23
2022-11-30T20:59:02.310Z,29.80
2022-11-30T21:01:29.647Z,27.38
2022-11-30T21:03:56.701Z,34.92
2022-11-30T21:06:23.598Z,26.02
2022-11-30T21:08:50.406Z,26.00
2022-11-30T21:11:20.713Z,30.63
2022-11-30T21:13:50.039Z,30.30
2022-11-30T21:16:24.202Z,25.27
2022-11-30T21:18:54.767Z,29.52
2022-11-30T21:21:24.689Z,23.55
2022-11-30T21:23:52.113Z,29.27
2022-11-30T21:26:18.885Z,27.23
2022-11-30T21:28:47.781Z,28.92
2022-11-30T21:31:15.397Z,27.73
2022-11-30T21:33:45.700Z,28.33
2022-11-30T21:36:19.909Z,28.27
2022-11-30T21:38:46.671Z,27.23
2022-11-30T21:41:14.623Z,30.52
2022-11-30T21:43:42.263Z,30.23
2022-11-30T21:46:17.538Z,24.85
2022-11-30T21:48:48.862Z,26.25
2022-11-30T21:51:23.078Z,28.23
2022-11-30T21:53:57.284Z,27.40
2022-11-30T21:56:28.697Z,24.38
2022-11-30T21:58:57.223Z,30.38
2022-11-30T22:01:40.117Z,27.83
2022-11-30T22:04:10.049Z,29.05
2022-11-30T22:06:39.649Z,28.27
2022-11-30T22:09:13.453Z,28.23
2022-11-30T22:11:42.984Z,28.27
2022-11-30T22:14:16.381Z,26.05
2022-11-30T22:16:44.224Z,29.88
2022-11-30T22:19:11.214Z,30.55
2022-11-30T22:21:38.408Z,26.63
2022-11-30T22:24:10.571Z,27.30
2022-11-30T22:26:40.706Z,25.67
2022-11-30T22:29:14.310Z,28.38
2022-11-30T22:31:45.915Z,28.60
2022-11-30T22:34:13.225Z,28.45
2022-11-30T22:36:43.451Z,29.40
2022-11-30T22:39:13.529Z,30.33
2022-11-30T22:41:43.862Z,30.20
2022-11-30T22:44:17.325Z,31.33
2022-11-30T22:46:45.643Z,31.15
2022-11-30T22:49:20.177Z,30.88
2022-11-30T22:51:48.047Z,27.38
2022-11-30T22:54:15.057Z,30.23
2022-11-30T22:56:42.003Z,32.45
2022-11-30T22:59:12.803Z,31.75
2022-11-30T23:01:45.574Z,31.40
2022-11-30T23:04:17.792Z,31.80
2022-11-30T23:06:47.190Z,30.45
2022-11-30T23:09:21.327Z,32.67
2022-11-30T23:11:49.216Z,32.53
2022-11-30T23:14:16.537Z,35.38
2022-11-30T23:16:44.588Z,34.70
2022-11-30T23:19:12.777Z,31.35
2022-11-30T23:21:44.634Z,32.08
2022-11-30T23:24:20.121Z,35.92
2022-11-30T23:26:48.128Z,31.35
2022-11-30T23:29:16.925Z,33.13
2022-11-30T23:31:45.748Z,33.67
2022-11-30T23:34:21.143Z,30.85
2022-11-30T23:36:49.330Z,32.50
2022-11-30T23:39:19.088Z,30.90
2022-11-30T23:41:46.977Z,32.15
2022-11-30T23:44:13.956Z,36.50
2022-11-30T23:46:41.300Z,35.13
2022-11-30T23:49:08.758Z,33.17
2022-11-30T23:51:35.829Z,32.88
2022-11-30T23:54:02.666Z,33.50
2022-11-30T23:56:29.454Z,34.92
2022-11-30T23:58:56.317Z,31.85
